sensor_id;sensor_type;location;lat;lon;timestamp;pressure;altitude;pressure_sealevel;temperature;humidity
61436;BME280;47304;47.456;19.160;2023-02-08T00:02:08;102612.23;;;-3.70;64.22
61436;BME280;47304;47.456;19.160;2023-02-08T00:04:34;102614.94;;;-3.63;63.96
61436;BME280;47304;47.456;19.160;2023-02-08T00:07:01;102614.27;;;-3.57;63.63
61436;BME280;47304;47.456;19.160;2023-02-08T00:09:27;102614.36;;;-3.53;63.47
61436;BME280;47304;47.456;19.160;2023-02-08T00:11:54;102613.00;;;-3.49;63.26
61436;BME280;47304;47.456;19.160;2023-02-08T00:14:20;102614.85;;;-3.44;63.15
61436;BME280;47304;47.456;19.160;2023-02-08T00:16:47;102614.17;;;-3.40;62.85
61436;BME280;47304;47.456;19.160;2023-02-08T00:19:15;102619.09;;;-3.35;62.50
61436;BME280;47304;47.456;19.160;2023-02-08T00:21:41;102618.88;;;-3.30;62.23
61436;BME280;47304;47.456;19.160;2023-02-08T00:24:08;102619.64;;;-3.25;61.77
61436;BME280;47304;47.456;19.160;2023-02-08T00:26:34;102615.09;;;-3.20;61.60
61436;BME280;47304;47.456;19.160;2023-02-08T00:29:01;102618.63;;;-3.15;61.60
61436;BME280;47304;47.456;19.160;2023-02-08T00:31:27;102620.67;;;-3.11;61.30
61436;BME280;47304;47.456;19.160;2023-02-08T00:33:54;102625.63;;;-3.10;61.11
61436;BME280;47304;47.456;19.160;2023-02-08T00:36:20;102622.29;;;-3.07;61.01
61436;BME280;47304;47.456;19.160;2023-02-08T00:38:47;102622.96;;;-3.05;60.89
61436;BME280;47304;47.456;19.160;2023-02-08T00:41:14;102614.78;;;-3.03;60.78
61436;BME280;47304;47.456;19.160;2023-02-08T00:43:40;102620.44;;;-3.03;60.56
61436;BME280;47304;47.456;19.160;2023-02-08T00:46:07;102624.40;;;-3.03;60.50
61436;BME280;47304;47.456;19.160;2023-02-08T00:48:33;102626.17;;;-3.02;60.60
61436;BME280;47304;47.456;19.160;2023-02-08T00:51:06;102631.27;;;-3.04;60.38
61436;BME280;47304;47.456;19.160;2023-02-08T00:53:38;102629.08;;;-3.04;60.38
61436;BME280;47304;47.456;19.160;2023-02-08T00:56:06;102627.67;;;-3.03;60.35
61436;BME280;47304;47.456;19.160;2023-02-08T00:58:33;102627.10;;;-3.01;60.46
61436;BME280;47304;47.456;19.160;2023-02-08T01:01:00;102628.65;;;-3.01;60.28
61436;BME280;47304;47.456;19.160;2023-02-08T01:03:27;102623.98;;;-3.04;60.16
61436;BME280;47304;47.456;19.160;2023-02-08T01:05:59;102624.23;;;-3.04;60.12
61436;BME280;47304;47.456;19.160;2023-02-08T01:08:26;102618.33;;;-3.05;60.15
61436;BME280;47304;47.456;19.160;2023-02-08T01:10:52;102618.20;;;-3.05;60.05
61436;BME280;47304;47.456;19.160;2023-02-08T01:13:19;102619.92;;;-3.03;60.03
61436;BME280;47304;47.456;19.160;2023-02-08T01:15:45;102609.19;;;-3.00;59.86
61436;BME280;47304;47.456;19.160;2023-02-08T01:18:12;102610.98;;;-2.99;59.72
61436;BME280;47304;47.456;19.160;2023-02-08T01:20:38;102610.80;;;-2.98;59.66
61436;BME280;47304;47.456;19.160;2023-02-08T01:23:05;102613.14;;;-2.96;59.59
61436;BME280;47304;47.456;19.160;2023-02-08T01:25:32;102614.51;;;-2.96;59.47
61436;BME280;47304;47.456;19.160;2023-02-08T01:27:58;102615.50;;;-2.96;59.40
61436;BME280;47304;47.456;19.160;2023-02-08T01:30:25;102617.67;;;-2.93;59.28
61436;BME280;47304;47.456;19.160;2023-02-08T01:32:51;102619.85;;;-2.90;59.24
61436;BME280;47304;47.456;19.160;2023-02-08T01:35:18;102626.93;;;-2.86;59.12
61436;BME280;47304;47.456;19.160;2023-02-08T01:37:45;102628.91;;;-2.81;59.03
61436;BME280;47304;47.456;19.160;2023-02-08T01:40:11;102632.46;;;-2.75;58.81
61436;BME280;47304;47.456;19.160;2023-02-08T01:42:38;102634.63;;;-2.71;58.77
61436;BME280;47304;47.456;19.160;2023-02-08T01:45:26;102634.95;;;-2.65;58.72
61436;BME280;47304;47.456;19.160;2023-02-08T01:48:08;102632.86;;;-2.61;58.59
61436;BME280;47304;47.456;19.160;2023-02-08T01:50:50;102630.80;;;-2.59;58.48
61436;BME280;47304;47.456;19.160;2023-02-08T01:53:18;102627.59;;;-2.59;58.51
61436;BME280;47304;47.456;19.160;2023-02-08T01:55:49;102625.48;;;-2.60;58.43
61436;BME280;47304;47.456;19.160;2023-02-08T01:58:18;102630.36;;;-2.60;58.51
61436;BME280;47304;47.456;19.160;2023-02-08T02:00:46;102632.49;;;-2.62;58.48
61436;BME280;47304;47.456;19.160;2023-02-08T02:03:13;102630.77;;;-2.60;58.59
61436;BME280;47304;47.456;19.160;2023-02-08T02:05:44;102629.98;;;-2.59;58.57
61436;BME280;47304;47.456;19.160;2023-02-08T02:08:12;102624.77;;;-2.58;58.57
61436;BME280;47304;47.456;19.160;2023-02-08T02:10:40;102621.66;;;-2.56;58.59
61436;BME280;47304;47.456;19.160;2023-02-08T02:13:20;102623.16;;;-2.55;58.55
61436;BME280;47304;47.456;19.160;2023-02-08T02:15:48;102620.80;;;-2.54;58.50
61436;BME280;47304;47.456;19.160;2023-02-08T02:18:36;102622.94;;;-2.54;58.52
61436;BME280;47304;47.456;19.160;2023-02-08T02:30:07;102615.55;;;-2.51;58.39
61436;BME280;47304;47.456;19.160;2023-02-08T02:38:09;102616.94;;;-2.47;58.25
61436;BME280;47304;47.456;19.160;2023-02-08T02:40:58;102619.16;;;-2.46;58.30
61436;BME280;47304;47.456;19.160;2023-02-08T02:46:51;102626.23;;;-2.41;58.18
61436;BME280;47304;47.456;19.160;2023-02-08T02:54:08;102631.88;;;-2.34;58.08
61436;BME280;47304;47.456;19.160;2023-02-08T02:56:40;102635.81;;;-2.30;57.87
61436;BME280;47304;47.456;19.160;2023-02-08T02:59:10;102639.50;;;-2.29;57.67
61436;BME280;47304;47.456;19.160;2023-02-08T03:01:38;102643.37;;;-2.28;57.67
61436;BME280;47304;47.456;19.160;2023-02-08T03:04:16;102646.80;;;-2.26;57.73
61436;BME280;47304;47.456;19.160;2023-02-08T03:06:58;102647.80;;;-2.23;57.76
61436;BME280;47304;47.456;19.160;2023-02-08T03:15:39;102654.91;;;-2.12;57.72
61436;BME280;47304;47.456;19.160;2023-02-08T03:26:27;102658.52;;;-2.06;57.39
61436;BME280;47304;47.456;19.160;2023-02-08T03:29:08;102660.94;;;-2.06;57.23
61436;BME280;47304;47.456;19.160;2023-02-08T03:34:13;102663.70;;;-1.99;57.28
61436;BME280;47304;47.456;19.160;2023-02-08T03:36:53;102666.70;;;-1.96;57.50
61436;BME280;47304;47.456;19.160;2023-02-08T03:39:24;102666.94;;;-1.94;57.35
61436;BME280;47304;47.456;19.160;2023-02-08T03:41:56;102666.74;;;-1.92;57.22
61436;BME280;47304;47.456;19.160;2023-02-08T03:44:31;102665.69;;;-1.90;57.24
61436;BME280;47304;47.456;19.160;2023-02-08T03:47:03;102665.27;;;-1.89;57.33
61436;BME280;47304;47.456;19.160;2023-02-08T03:49:34;102668.84;;;-1.88;57.28
61436;BME280;47304;47.456;19.160;2023-02-08T03:52:04;102667.82;;;-1.87;57.12
61436;BME280;47304;47.456;19.160;2023-02-08T03:54:35;102675.80;;;-1.86;57.21
61436;BME280;47304;47.456;19.160;2023-02-08T03:57:09;102675.65;;;-1.86;57.25
61436;BME280;47304;47.456;19.160;2023-02-08T03:59:40;102669.07;;;-1.87;57.30
61436;BME280;47304;47.456;19.160;2023-02-08T04:02:11;102671.71;;;-1.86;57.25
61436;BME280;47304;47.456;19.160;2023-02-08T04:04:43;102675.03;;;-1.85;57.41
61436;BME280;47304;47.456;19.160;2023-02-08T04:07:11;102679.10;;;-1.86;57.44
61436;BME280;47304;47.456;19.160;2023-02-08T04:09:38;102682.96;;;-1.87;57.44
61436;BME280;47304;47.456;19.160;2023-02-08T04:12:05;102683.04;;;-1.89;57.37
61436;BME280;47304;47.456;19.160;2023-02-08T04:14:31;102689.44;;;-1.86;57.56
61436;BME280;47304;47.456;19.160;2023-02-08T04:16:58;102690.61;;;-1.84;57.47
61436;BME280;47304;47.456;19.160;2023-02-08T04:19:24;102680.58;;;-1.83;57.36
61436;BME280;47304;47.456;19.160;2023-02-08T04:21:51;102678.59;;;-1.82;57.32
61436;BME280;47304;47.456;19.160;2023-02-08T04:24:17;102676.11;;;-1.83;57.45
61436;BME280;47304;47.456;19.160;2023-02-08T04:26:44;102674.06;;;-1.83;57.37
61436;BME280;47304;47.456;19.160;2023-02-08T04:29:11;102670.13;;;-1.85;57.24
61436;BME280;47304;47.456;19.160;2023-02-08T04:31:37;102667.63;;;-1.86;57.50
61436;BME280;47304;47.456;19.160;2023-02-08T04:34:04;102670.20;;;-1.86;57.58
61436;BME280;47304;47.456;19.160;2023-02-08T04:36:31;102669.27;;;-1.85;57.65
61436;BME280;47304;47.456;19.160;2023-02-08T04:38:57;102671.95;;;-1.83;57.65
61436;BME280;47304;47.456;19.160;2023-02-08T04:41:24;102669.41;;;-1.83;57.72
61436;BME280;47304;47.456;19.160;2023-02-08T04:43:50;102672.13;;;-1.83;57.49
61436;BME280;47304;47.456;19.160;2023-02-08T04:46:17;102674.23;;;-1.83;57.51
61436;BME280;47304;47.456;19.160;2023-02-08T04:48:44;102677.45;;;-1.81;57.49
61436;BME280;47304;47.456;19.160;2023-02-08T04:51:10;102669.92;;;-1.81;57.39
61436;BME280;47304;47.456;19.160;2023-02-08T04:53:37;102669.67;;;-1.82;57.47
61436;BME280;47304;47.456;19.160;2023-02-08T04:56:03;102678.60;;;-1.82;57.37
61436;BME280;47304;47.456;19.160;2023-02-08T04:58:30;102681.04;;;-1.83;57.51
61436;BME280;47304;47.456;19.160;2023-02-08T05:00:57;102686.71;;;-1.84;57.49
61436;BME280;47304;47.456;19.160;2023-02-08T05:03:23;102687.75;;;-1.84;57.62
61436;BME280;47304;47.456;19.160;2023-02-08T05:05:57;102690.86;;;-1.83;57.58
61436;BME280;47304;47.456;19.160;2023-02-08T05:08:23;102689.52;;;-1.83;57.45
61436;BME280;47304;47.456;19.160;2023-02-08T05:10:50;102697.59;;;-1.83;57.46
61436;BME280;47304;47.456;19.160;2023-02-08T05:13:17;102697.45;;;-1.82;57.59
61436;BME280;47304;47.456;19.160;2023-02-08T05:15:43;102698.36;;;-1.82;57.89
61436;BME280;47304;47.456;19.160;2023-02-08T05:18:10;102700.66;;;-1.81;57.73
61436;BME280;47304;47.456;19.160;2023-02-08T05:20:36;102705.27;;;-1.80;57.51
61436;BME280;47304;47.456;19.160;2023-02-08T05:23:05;102704.36;;;-1.78;57.51
61436;BME280;47304;47.456;19.160;2023-02-08T05:25:32;102706.61;;;-1.76;57.45
61436;BME280;47304;47.456;19.160;2023-02-08T05:27:59;102704.77;;;-1.76;57.63
61436;BME280;47304;47.456;19.160;2023-02-08T05:30:26;102705.38;;;-1.75;57.44
61436;BME280;47304;47.456;19.160;2023-02-08T05:32:52;102706.05;;;-1.75;57.20
61436;BME280;47304;47.456;19.160;2023-02-08T05:35:19;102709.55;;;-1.76;57.23
61436;BME280;47304;47.456;19.160;2023-02-08T05:37:45;102707.81;;;-1.78;57.11
61436;BME280;47304;47.456;19.160;2023-02-08T05:40:11;102708.79;;;-1.81;57.28
61436;BME280;47304;47.456;19.160;2023-02-08T05:42:38;102705.60;;;-1.83;57.20
61436;BME280;47304;47.456;19.160;2023-02-08T05:45:05;102701.88;;;-1.87;57.25
61436;BME280;47304;47.456;19.160;2023-02-08T05:47:31;102700.64;;;-1.92;57.18
61436;BME280;47304;47.456;19.160;2023-02-08T05:49:58;102698.30;;;-1.97;57.16
61436;BME280;47304;47.456;19.160;2023-02-08T05:52:24;102703.48;;;-2.02;57.40
61436;BME280;47304;47.456;19.160;2023-02-08T05:54:51;102712.38;;;-2.05;57.67
61436;BME280;47304;47.456;19.160;2023-02-08T05:57:17;102721.67;;;-2.07;57.72
61436;BME280;47304;47.456;19.160;2023-02-08T05:59:44;102717.92;;;-2.08;57.90
61436;BME280;47304;47.456;19.160;2023-02-08T06:02:10;102720.07;;;-2.09;57.77
61436;BME280;47304;47.456;19.160;2023-02-08T06:04:37;102726.44;;;-2.09;57.61
61436;BME280;47304;47.456;19.160;2023-02-08T06:07:04;102727.48;;;-2.10;57.69
61436;BME280;47304;47.456;19.160;2023-02-08T06:09:31;102729.13;;;-2.12;57.85
61436;BME280;47304;47.456;19.160;2023-02-08T06:11:57;102735.86;;;-2.13;57.79
61436;BME280;47304;47.456;19.160;2023-02-08T06:14:24;102736.40;;;-2.13;57.90
61436;BME280;47304;47.456;19.160;2023-02-08T06:16:50;102738.44;;;-2.13;58.01
61436;BME280;47304;47.456;19.160;2023-02-08T06:19:17;102738.69;;;-2.12;58.00
61436;BME280;47304;47.456;19.160;2023-02-08T06:21:43;102739.73;;;-2.12;57.97
61436;BME280;47304;47.456;19.160;2023-02-08T06:24:10;102741.77;;;-2.12;58.03
61436;BME280;47304;47.456;19.160;2023-02-08T06:26:36;102741.23;;;-2.13;58.19
61436;BME280;47304;47.456;19.160;2023-02-08T06:29:03;102746.82;;;-2.11;57.92
61436;BME280;47304;47.456;19.160;2023-02-08T06:31:30;102746.45;;;-2.10;57.91
61436;BME280;47304;47.456;19.160;2023-02-08T06:33:56;102749.94;;;-2.07;57.85
61436;BME280;47304;47.456;19.160;2023-02-08T06:36:23;102752.20;;;-2.05;57.87
61436;BME280;47304;47.456;19.160;2023-02-08T06:38:49;102750.88;;;-2.02;57.93
61436;BME280;47304;47.456;19.160;2023-02-08T06:41:16;102752.38;;;-1.99;57.96
61436;BME280;47304;47.456;19.160;2023-02-08T06:43:43;102756.95;;;-1.96;58.02
61436;BME280;47304;47.456;19.160;2023-02-08T06:46:09;102755.02;;;-1.93;57.78
61436;BME280;47304;47.456;19.160;2023-02-08T06:48:36;102757.45;;;-1.88;57.50
61436;BME280;47304;47.456;19.160;2023-02-08T06:51:03;102764.42;;;-1.85;57.47
61436;BME280;47304;47.456;19.160;2023-02-08T06:53:29;102763.77;;;-1.81;57.78
61436;BME280;47304;47.456;19.160;2023-02-08T06:55:56;102765.66;;;-1.77;57.86
61436;BME280;47304;47.456;19.160;2023-02-08T06:58:23;102769.80;;;-1.73;57.87
61436;BME280;47304;47.456;19.160;2023-02-08T07:00:49;102766.29;;;-1.69;57.89
61436;BME280;47304;47.456;19.160;2023-02-08T07:03:16;102763.67;;;-1.66;57.61
61436;BME280;47304;47.456;19.160;2023-02-08T07:05:42;102768.67;;;-1.60;57.51
61436;BME280;47304;47.456;19.160;2023-02-08T07:08:29;102769.02;;;-1.54;57.44
61436;BME280;47304;47.456;19.160;2023-02-08T07:10:56;102766.20;;;-1.49;57.12
61436;BME280;47304;47.456;19.160;2023-02-08T07:13:22;102769.67;;;-1.45;57.31
61436;BME280;47304;47.456;19.160;2023-02-08T07:15:49;102768.13;;;-1.38;57.26
61436;BME280;47304;47.456;19.160;2023-02-08T07:18:15;102769.50;;;-1.30;57.04
61436;BME280;47304;47.456;19.160;2023-02-08T07:20:44;102771.02;;;-1.23;57.00
61436;BME280;47304;47.456;19.160;2023-02-08T07:23:11;102774.40;;;-1.15;56.56
61436;BME280;47304;47.456;19.160;2023-02-08T07:25:37;102776.75;;;-1.10;56.31
61436;BME280;47304;47.456;19.160;2023-02-08T07:28:04;102780.35;;;-1.04;56.32
61436;BME280;47304;47.456;19.160;2023-02-08T07:30:30;102781.14;;;-0.97;56.12
61436;BME280;47304;47.456;19.160;2023-02-08T07:32:57;102786.13;;;-0.91;55.89
61436;BME280;47304;47.456;19.160;2023-02-08T07:35:24;102787.65;;;-0.87;55.45
61436;BME280;47304;47.456;19.160;2023-02-08T07:37:53;102793.44;;;-0.84;55.28
61436;BME280;47304;47.456;19.160;2023-02-08T07:40:20;102791.20;;;-0.77;55.30
61436;BME280;47304;47.456;19.160;2023-02-08T07:42:46;102797.31;;;-0.72;55.31
61436;BME280;47304;47.456;19.160;2023-02-08T07:45:13;102797.94;;;-0.65;55.48
61436;BME280;47304;47.456;19.160;2023-02-08T07:47:40;102793.47;;;-0.58;55.12
61436;BME280;47304;47.456;19.160;2023-02-08T07:50:09;102800.41;;;-0.47;55.08
61436;BME280;47304;47.456;19.160;2023-02-08T07:52:35;102799.98;;;-0.36;55.01
61436;BME280;47304;47.456;19.160;2023-02-08T07:55:02;102796.44;;;-0.26;54.40
61436;BME280;47304;47.456;19.160;2023-02-08T07:57:28;102803.86;;;-0.20;54.46
61436;BME280;47304;47.456;19.160;2023-02-08T07:59:55;102798.54;;;-0.11;54.50
61436;BME280;47304;47.456;19.160;2023-02-08T08:02:21;102801.70;;;0.00;54.56
61436;BME280;47304;47.456;19.160;2023-02-08T08:04:48;102803.74;;;0.08;54.08
61436;BME280;47304;47.456;19.160;2023-02-08T08:07:15;102806.93;;;0.14;54.04
61436;BME280;47304;47.456;19.160;2023-02-08T08:09:42;102809.88;;;0.22;54.10
61436;BME280;47304;47.456;19.160;2023-02-08T08:12:08;102812.61;;;0.33;54.23
61436;BME280;47304;47.456;19.160;2023-02-08T08:14:35;102811.95;;;0.44;53.95
61436;BME280;47304;47.456;19.160;2023-02-08T08:17:01;102813.90;;;0.56;53.78
61436;BME280;47304;47.456;19.160;2023-02-08T08:19:28;102818.52;;;0.66;53.83
61436;BME280;47304;47.456;19.160;2023-02-08T08:21:54;102817.47;;;0.77;53.87
61436;BME280;47304;47.456;19.160;2023-02-08T08:24:21;102814.41;;;0.87;53.49
61436;BME280;47304;47.456;19.160;2023-02-08T08:26:49;102819.20;;;0.97;53.24
61436;BME280;47304;47.456;19.160;2023-02-08T08:29:16;102817.69;;;1.11;53.49
61436;BME280;47304;47.456;19.160;2023-02-08T08:31:43;102817.47;;;1.24;53.26
61436;BME280;47304;47.456;19.160;2023-02-08T08:34:11;102821.00;;;1.41;53.35
61436;BME280;47304;47.456;19.160;2023-02-08T08:36:38;102825.21;;;2.05;53.40
61436;BME280;47304;47.456;19.160;2023-02-08T08:39:05;102817.21;;;4.04;51.91
61436;BME280;47304;47.456;19.160;2023-02-08T08:41:31;102809.89;;;6.60;48.36
61436;BME280;47304;47.456;19.160;2023-02-08T08:43:58;102804.30;;;9.27;44.17
61436;BME280;47304;47.456;19.160;2023-02-08T08:46:24;102797.40;;;11.59;39.08
61436;BME280;47304;47.456;19.160;2023-02-08T08:48:51;102794.48;;;13.62;36.06
61436;BME280;47304;47.456;19.160;2023-02-08T08:51:18;102789.71;;;15.18;31.66
61436;BME280;47304;47.456;19.160;2023-02-08T08:53:44;102783.09;;;16.56;31.27
61436;BME280;47304;47.456;19.160;2023-02-08T08:56:11;102783.42;;;18.17;29.15
61436;BME280;47304;47.456;19.160;2023-02-08T08:58:37;102780.73;;;19.57;26.73
61436;BME280;47304;47.456;19.160;2023-02-08T09:01:04;102778.16;;;20.84;25.59
61436;BME280;47304;47.456;19.160;2023-02-08T09:03:31;102785.56;;;21.95;23.87
61436;BME280;47304;47.456;19.160;2023-02-08T09:05:57;102790.01;;;23.03;23.11
61436;BME280;47304;47.456;19.160;2023-02-08T09:08:24;102790.60;;;23.80;20.33
61436;BME280;47304;47.456;19.160;2023-02-08T09:10:51;102791.27;;;24.32;19.97
61436;BME280;47304;47.456;19.160;2023-02-08T09:13:17;102796.98;;;25.18;19.73
61436;BME280;47304;47.456;19.160;2023-02-08T09:15:44;102800.58;;;25.48;18.31
61436;BME280;47304;47.456;19.160;2023-02-08T09:18:11;102805.62;;;25.32;18.14
61436;BME280;47304;47.456;19.160;2023-02-08T09:20:39;102806.77;;;24.24;18.17
61436;BME280;47304;47.456;19.160;2023-02-08T09:23:05;102814.92;;;22.31;18.79
61436;BME280;47304;47.456;19.160;2023-02-08T09:25:35;102820.10;;;20.25;19.74
61436;BME280;47304;47.456;19.160;2023-02-08T09:28:02;102825.21;;;18.33;21.21
61436;BME280;47304;47.456;19.160;2023-02-08T09:30:29;102830.75;;;16.73;22.65
61436;BME280;47304;47.456;19.160;2023-02-08T09:32:56;102835.05;;;15.73;23.68
61436;BME280;47304;47.456;19.160;2023-02-08T09:35:22;102833.02;;;16.22;23.94
61436;BME280;47304;47.456;19.160;2023-02-08T09:37:52;102830.73;;;17.90;23.08
61436;BME280;47304;47.456;19.160;2023-02-08T09:40:22;102827.30;;;19.84;21.59
61436;BME280;47304;47.456;19.160;2023-02-08T09:45:59;102819.71;;;23.80;18.59
61436;BME280;47304;47.456;19.160;2023-02-08T09:48:36;102812.48;;;25.87;16.61
61436;BME280;47304;47.456;19.160;2023-02-08T09:51:05;102806.91;;;27.20;15.05
61436;BME280;47304;47.456;19.160;2023-02-08T09:53:45;102802.09;;;28.15;15.00
61436;BME280;47304;47.456;19.160;2023-02-08T09:56:15;102803.33;;;29.50;14.43
61436;BME280;47304;47.456;19.160;2023-02-08T09:58:51;102803.61;;;30.47;13.86
61436;BME280;47304;47.456;19.160;2023-02-08T10:01:25;102802.80;;;31.26;12.79
61436;BME280;47304;47.456;19.160;2023-02-08T10:04:00;102806.16;;;31.74;12.42
61436;BME280;47304;47.456;19.160;2023-02-08T10:06:29;102805.26;;;32.29;12.28
61436;BME280;47304;47.456;19.160;2023-02-08T10:09:01;102807.10;;;32.88;11.72
61436;BME280;47304;47.456;19.160;2023-02-08T10:27:46;102798.97;;;36.69;9.56
61436;BME280;47304;47.456;19.160;2023-02-08T10:35:46;102800.22;;;38.06;8.64
61436;BME280;47304;47.456;19.160;2023-02-08T10:38:21;102796.05;;;38.76;8.33
61436;BME280;47304;47.456;19.160;2023-02-08T10:41:01;102798.83;;;39.81;7.97
61436;BME280;47304;47.456;19.160;2023-02-08T10:49:28;102793.42;;;39.78;7.49
61436;BME280;47304;47.456;19.160;2023-02-08T10:51:59;102791.23;;;38.36;8.09
61436;BME280;47304;47.456;19.160;2023-02-08T10:54:26;102787.17;;;38.21;8.24
61436;BME280;47304;47.456;19.160;2023-02-08T10:56:59;102790.36;;;38.76;7.87
61436;BME280;47304;47.456;19.160;2023-02-08T11:01:55;102785.31;;;39.30;7.63
61436;BME280;47304;47.456;19.160;2023-02-08T11:04:22;102783.94;;;39.71;7.37
61436;BME280;47304;47.456;19.160;2023-02-08T11:06:49;102780.14;;;40.05;7.32
61436;BME280;47304;47.456;19.160;2023-02-08T11:09:23;102780.56;;;40.33;7.39
61436;BME280;47304;47.456;19.160;2023-02-08T11:11:51;102783.31;;;40.85;7.18
61436;BME280;47304;47.456;19.160;2023-02-08T11:14:38;102784.02;;;41.09;7.05
61436;BME280;47304;47.456;19.160;2023-02-08T11:17:25;102785.54;;;41.11;7.06
61436;BME280;47304;47.456;19.160;2023-02-08T11:19:52;102783.80;;;40.92;6.88
61436;BME280;47304;47.456;19.160;2023-02-08T11:22:21;102786.88;;;40.34;6.67
61436;BME280;47304;47.456;19.160;2023-02-08T11:24:58;102791.48;;;39.86;6.92
61436;BME280;47304;47.456;19.160;2023-02-08T11:27:35;102790.17;;;39.29;6.97
61436;BME280;47304;47.456;19.160;2023-02-08T11:32:34;102796.19;;;35.84;7.57
61436;BME280;47304;47.456;19.160;2023-02-08T11:35:19;102795.21;;;33.44;8.37
61436;BME280;47304;47.456;19.160;2023-02-08T11:37:57;102796.63;;;31.24;9.62
61436;BME280;47304;47.456;19.160;2023-02-08T11:40:33;102796.92;;;29.24;10.96
61436;BME280;47304;47.456;19.160;2023-02-08T11:43:00;102796.42;;;27.42;12.13
61436;BME280;47304;47.456;19.160;2023-02-08T11:45:30;102790.65;;;25.97;12.86
61436;BME280;47304;47.456;19.160;2023-02-08T11:47:58;102795.30;;;24.43;14.12
61436;BME280;47304;47.456;19.160;2023-02-08T11:50:30;102802.02;;;22.84;14.89
61436;BME280;47304;47.456;19.160;2023-02-08T11:53:00;102799.64;;;21.51;15.50
61436;BME280;47304;47.456;19.160;2023-02-08T11:55:30;102799.86;;;20.37;16.66
61436;BME280;47304;47.456;19.160;2023-02-08T12:00:33;102792.63;;;19.92;17.94
61436;BME280;47304;47.456;19.160;2023-02-08T12:05:55;102783.05;;;23.80;15.26
61436;BME280;47304;47.456;19.160;2023-02-08T12:17:14;102776.21;;;24.20;13.99
61436;BME280;47304;47.456;19.160;2023-02-08T12:29:05;102784.92;;;18.26;18.48
61436;BME280;47304;47.456;19.160;2023-02-08T12:45:46;102785.41;;;12.73;23.39
61436;BME280;47304;47.456;19.160;2023-02-08T12:51:10;102789.50;;;11.63;25.17
61436;BME280;47304;47.456;19.160;2023-02-08T12:53:47;102794.99;;;11.28;25.98
61436;BME280;47304;47.456;19.160;2023-02-08T12:56:17;102787.88;;;11.01;27.39
61436;BME280;47304;47.456;19.160;2023-02-08T12:59:18;102793.61;;;10.80;27.75
61436;BME280;47304;47.456;19.160;2023-02-08T13:01:49;102794.45;;;10.70;28.60
61436;BME280;47304;47.456;19.160;2023-02-08T13:04:26;102789.92;;;10.57;28.77
61436;BME280;47304;47.456;19.160;2023-02-08T13:06:58;102784.18;;;10.40;28.85
61436;BME280;47304;47.456;19.160;2023-02-08T13:12:21;102789.27;;;10.18;28.14
61436;BME280;47304;47.456;19.160;2023-02-08T13:14:52;102787.13;;;10.26;28.72
61436;BME280;47304;47.456;19.160;2023-02-08T13:17:26;102786.55;;;10.42;28.35
61436;BME280;47304;47.456;19.160;2023-02-08T13:20:06;102789.27;;;10.86;27.42
61436;BME280;47304;47.456;19.160;2023-02-08T13:22:43;102793.35;;;10.97;27.70
61436;BME280;47304;47.456;19.160;2023-02-08T13:25:22;102793.79;;;10.80;27.28
61436;BME280;47304;47.456;19.160;2023-02-08T13:27:51;102793.27;;;10.26;27.17
61436;BME280;47304;47.456;19.160;2023-02-08T13:30:19;102797.50;;;9.75;27.69
61436;BME280;47304;47.456;19.160;2023-02-08T13:32:48;102799.07;;;9.33;28.74
61436;BME280;47304;47.456;19.160;2023-02-08T13:35:24;102798.84;;;8.92;29.48
61436;BME280;47304;47.456;19.160;2023-02-08T13:37:57;102795.81;;;8.49;30.04
61436;BME280;47304;47.456;19.160;2023-02-08T13:40:29;102796.69;;;8.13;30.60
61436;BME280;47304;47.456;19.160;2023-02-08T13:43:24;102798.55;;;7.82;31.18
61436;BME280;47304;47.456;19.160;2023-02-08T13:46:03;102800.53;;;7.49;31.59
61436;BME280;47304;47.456;19.160;2023-02-08T13:48:49;102799.30;;;7.25;31.92
61436;BME280;47304;47.456;19.160;2023-02-08T13:56:43;102797.77;;;6.53;32.45
61436;BME280;47304;47.456;19.160;2023-02-08T13:59:34;102800.86;;;6.59;32.62
61436;BME280;47304;47.456;19.160;2023-02-08T14:04:44;102801.37;;;6.52;32.91
61436;BME280;47304;47.456;19.160;2023-02-08T14:07:28;102803.17;;;6.34;33.37
61436;BME280;47304;47.456;19.160;2023-02-08T14:10:06;102806.07;;;6.11;33.41
61436;BME280;47304;47.456;19.160;2023-02-08T14:12:50;102806.26;;;5.90;33.55
61436;BME280;47304;47.456;19.160;2023-02-08T14:15:25;102807.56;;;5.74;33.73
61436;BME280;47304;47.456;19.160;2023-02-08T14:17:54;102807.89;;;5.56;34.06
61436;BME280;47304;47.456;19.160;2023-02-08T14:20:31;102804.23;;;5.32;34.49
61436;BME280;47304;47.456;19.160;2023-02-08T14:23:01;102805.17;;;5.07;35.23
61436;BME280;47304;47.456;19.160;2023-02-08T14:25:39;102802.46;;;4.85;35.98
61436;BME280;47304;47.456;19.160;2023-02-08T14:28:24;102801.48;;;4.70;35.88
61436;BME280;47304;47.456;19.160;2023-02-08T14:30:54;102805.08;;;4.60;35.73
61436;BME280;47304;47.456;19.160;2023-02-08T14:33:27;102801.41;;;4.49;35.81
61436;BME280;47304;47.456;19.160;2023-02-08T14:36:00;102802.89;;;4.39;36.13
61436;BME280;47304;47.456;19.160;2023-02-08T14:38:48;102805.02;;;4.29;36.31
61436;BME280;47304;47.456;19.160;2023-02-08T14:50:12;102810.81;;;3.90;37.92
61436;BME280;47304;47.456;19.160;2023-02-08T14:52:53;102806.78;;;3.84;38.21
61436;BME280;47304;47.456;19.160;2023-02-08T14:55:26;102805.73;;;3.79;38.11
61436;BME280;47304;47.456;19.160;2023-02-08T14:57:56;102806.96;;;3.73;38.04
61436;BME280;47304;47.456;19.160;2023-02-08T15:00:29;102803.09;;;3.67;38.30
61436;BME280;47304;47.456;19.160;2023-02-08T15:02:59;102806.16;;;3.61;38.41
61436;BME280;47304;47.456;19.160;2023-02-08T15:05:28;102804.79;;;3.56;38.76
61436;BME280;47304;47.456;19.160;2023-02-08T15:07:57;102804.95;;;3.49;38.86
61436;BME280;47304;47.456;19.160;2023-02-08T15:10:26;102808.14;;;3.42;38.60
61436;BME280;47304;47.456;19.160;2023-02-08T15:12:55;102810.36;;;3.36;38.55